createdAt,value
2019-04-11T00:00:53.782Z,12.67
2019-04-11T00:05:59.268Z,12.00
2019-04-11T00:11:04.379Z,13.27
2019-04-11T00:16:09.843Z,12.13
2019-04-11T00:21:14.926Z,12.73
2019-04-11T00:26:20.086Z,12.77
2019-04-11T00:31:25.140Z,13.40
2019-04-11T00:36:30.519Z,13.43
2019-04-11T00:41:34.702Z,13.60
2019-04-11T00:46:38.841Z,15.33
2019-04-11T00:51:44.314Z,14.53
2019-04-11T00:56:48.527Z,14.40
2019-04-11T01:01:53.390Z,14.93
2019-04-11T01:06:58.586Z,15.33
2019-04-11T01:12:02.969Z,15.70
2019-04-11T01:17:09.333Z,15.67
2019-04-11T01:22:16.084Z,16.13
2019-04-11T01:27:21.620Z,16.37
2019-04-11T01:32:28.495Z,16.33
2019-04-11T01:37:33.818Z,15.80
2019-04-11T01:42:39.639Z,15.47
2019-04-11T01:48:03.624Z,16.60
2019-04-11T01:53:08.938Z,16.50
2019-04-11T01:58:14.244Z,16.80
2019-04-11T02:03:25.736Z,16.90
2019-04-11T02:08:31.289Z,16.60
2019-04-11T02:13:36.346Z,17.03
2019-04-11T02:18:41.551Z,16.70
2019-04-11T02:24:03.600Z,16.67
2019-04-11T02:29:08.987Z,17.53
2019-04-11T02:34:16.018Z,15.50
2019-04-11T02:39:22.940Z,15.90
2019-04-11T02:44:39.882Z,17.10
2019-04-11T02:49:35.826Z,16.60
2019-04-11T02:54:41.230Z,15.77
2019-04-11T02:59:48.983Z,17.47
2019-04-11T03:04:55.648Z,16.47
2019-04-11T03:10:03.157Z,17.00
2019-04-11T03:15:25.637Z,16.60
2019-04-11T03:20:24.197Z,16.87
2019-04-11T03:25:22.624Z,16.03
2019-04-11T03:30:44.742Z,16.33
2019-04-11T03:36:27.668Z,16.00
2019-04-11T03:40:57.704Z,16.93
2019-04-11T03:46:05.146Z,15.83
2019-04-11T03:50:56.737Z,17.27
2019-04-11T03:55:59.132Z,17.73
2019-04-11T04:01:08.442Z,15.40
2019-04-11T04:06:10.211Z,16.33
2019-04-11T04:11:22.959Z,16.87
2019-04-11T04:16:52.704Z,15.97
2019-04-11T04:22:07.916Z,15.37
2019-04-11T04:27:13.229Z,15.50
2019-04-11T04:32:19.270Z,15.23
2019-04-11T04:37:27.151Z,16.50
2019-04-11T04:42:39.306Z,15.77
2019-04-11T04:47:48.043Z,16.03
2019-04-11T04:52:48.963Z,14.90
2019-04-11T04:57:55.479Z,14.93
2019-04-11T05:03:02.177Z,14.87
2019-04-11T05:08:08.336Z,15.27
2019-04-11T05:13:15.718Z,14.80
2019-04-11T05:18:21.887Z,14.50
2019-04-11T05:23:29.797Z,13.90
2019-04-11T05:28:35.336Z,14.50
2019-04-11T05:33:41.300Z,14.40
2019-04-11T05:38:48.639Z,14.30
2019-04-11T05:43:54.076Z,13.53
2019-04-11T05:49:21.171Z,13.50
2019-04-11T05:54:27.977Z,14.33
2019-04-11T05:59:33.243Z,14.17
2019-04-11T06:04:55.937Z,13.57
2019-04-11T06:10:08.567Z,14.07
2019-04-11T06:15:20.084Z,13.80
2019-04-11T06:20:40.422Z,13.23
2019-04-11T06:26:09.190Z,12.73
2019-04-11T06:31:45.318Z,12.80
2019-04-11T06:37:14.182Z,12.80
2019-04-11T06:42:37.266Z,12.50
2019-04-11T06:48:03.184Z,11.70
2019-04-11T06:53:09.750Z,11.37
2019-04-11T06:58:25.890Z,11.90
2019-04-11T07:03:36.256Z,11.27
2019-04-11T07:08:51.554Z,10.77
2019-04-11T07:14:15.928Z,11.17
2019-04-11T07:19:48.024Z,11.40
2019-04-11T07:25:18.130Z,11.70
2019-04-11T07:30:45.317Z,11.60
2019-04-11T07:36:12.181Z,10.93
2019-04-11T07:41:38.932Z,11.87
2019-04-11T07:46:55.827Z,10.13
2019-04-11T07:52:02.869Z,11.13
2019-04-11T07:57:26.861Z,10.80
2019-04-11T08:02:53.173Z,10.67
2019-04-11T08:08:23.230Z,10.87
2019-04-11T08:13:34.634Z,10.27
2019-04-11T08:18:48.831Z,10.20
2019-04-11T08:23:56.180Z,9.60
2019-04-11T08:29:09.248Z,10.07
2019-04-11T08:34:09.007Z,8.83
2019-04-11T08:39:20.672Z,8.50
2019-04-11T08:44:39.670Z,8.90
2019-04-11T08:49:52.439Z,7.90
2019-04-11T08:55:10.355Z,7.70
2019-04-11T09:00:35.813Z,8.03
2019-04-11T09:06:04.462Z,7.90
2019-04-11T09:11:30.970Z,8.00
2019-04-11T09:16:54.073Z,7.10
2019-04-11T09:22:20.496Z,7.97
2019-04-11T09:27:44.748Z,7.50
2019-04-11T09:33:17.101Z,7.70
2019-04-11T09:38:24.277Z,7.57
2019-04-11T09:43:31.768Z,6.77
2019-04-11T09:48:56.195Z,7.77
2019-04-11T09:54:08.570Z,7.30
2019-04-11T09:59:20.812Z,8.20
2019-04-11T10:04:27.704Z,8.23
2019-04-11T10:09:50.749Z,7.63
2019-04-11T10:14:57.739Z,7.40
2019-04-11T10:20:09.207Z,8.20
2019-04-11T10:25:30.827Z,7.60
2019-04-11T10:31:08.536Z,8.07
2019-04-11T10:36:25.357Z,7.40
2019-04-11T10:41:35.729Z,8.23
2019-04-11T10:46:55.746Z,7.70
2019-04-11T10:52:06.461Z,7.30
2019-04-11T10:57:36.067Z,7.40
2019-04-11T11:03:09.826Z,8.37
2019-04-11T11:08:23.573Z,7.47
2019-04-11T11:13:32.200Z,7.17
2019-04-11T11:19:24.435Z,6.23
2019-04-11T11:24:40.226Z,7.13
2019-04-11T11:30:04.900Z,6.80
2019-04-11T11:35:32.356Z,7.03
2019-04-11T11:40:58.552Z,6.47
2019-04-11T11:46:26.678Z,6.73
2019-04-11T11:51:49.849Z,6.53
2019-04-11T11:56:58.217Z,6.83
2019-04-11T12:02:10.749Z,6.10
2019-04-11T12:07:18.854Z,6.03
2019-04-11T12:12:40.159Z,7.10
2019-04-11T12:18:07.441Z,7.30
2019-04-11T12:23:46.281Z,7.20
2019-04-11T12:29:06.404Z,6.90
2019-04-11T12:34:32.464Z,7.47
2019-04-11T12:45:44.301Z,5.70
2019-04-11T12:51:08.991Z,6.73
2019-04-11T12:56:44.334Z,6.80
2019-04-11T13:02:27.681Z,6.70
2019-04-11T13:08:06.801Z,6.40
2019-04-11T13:13:32.677Z,6.77
2019-04-11T13:19:03.361Z,7.17
2019-04-11T13:24:26.939Z,6.77
2019-04-11T13:29:56.234Z,5.80
2019-04-11T13:35:08.289Z,6.10
2019-04-11T13:40:31.362Z,5.93
2019-04-11T13:45:46.718Z,6.23
2019-04-11T13:50:53.310Z,6.93
2019-04-11T13:55:59.961Z,6.50
2019-04-11T14:01:15.380Z,7.67
2019-04-11T14:06:31.480Z,7.20
2019-04-11T14:11:37.401Z,8.73
2019-04-11T14:17:09.715Z,7.87
2019-04-11T14:22:20.719Z,8.97
2019-04-11T14:27:27.598Z,9.20
2019-04-11T14:32:34.436Z,9.07
2019-04-11T14:37:55.093Z,9.70
2019-04-11T14:43:18.067Z,9.37
2019-04-11T14:48:43.401Z,10.33
2019-04-11T14:54:20.683Z,10.00
2019-04-11T14:59:34.799Z,9.57
2019-04-11T15:05:01.169Z,11.83
2019-04-11T15:10:41.475Z,9.70
2019-04-11T15:16:11.145Z,9.20
2019-04-11T15:21:45.044Z,9.80
2019-04-11T15:26:56.889Z,9.87
2019-04-11T15:32:22.559Z,10.13
2019-04-11T15:37:50.696Z,10.20
2019-04-11T15:43:34.197Z,9.70
2019-04-11T15:49:04.232Z,8.90
2019-04-11T15:54:17.661Z,9.20
2019-04-11T15:59:57.330Z,9.40
2019-04-11T16:05:22.803Z,9.40
2019-04-11T16:10:29.619Z,8.73
2019-04-11T16:15:35.151Z,8.73
2019-04-11T16:20:40.166Z,8.30
2019-04-11T16:25:53.396Z,8.47
2019-04-11T16:30:59.883Z,8.00
2019-04-11T16:36:28.351Z,7.90
2019-04-11T16:41:51.696Z,8.30
2019-04-11T16:47:23.690Z,8.97
2019-04-11T16:52:29.110Z,7.83
2019-04-11T16:57:35.478Z,8.67
2019-04-11T17:02:42.844Z,8.10
2019-04-11T17:08:03.888Z,7.67
2019-04-11T17:13:09.861Z,7.93
2019-04-11T17:18:15.645Z,8.20
2019-04-11T17:23:21.539Z,8.30
2019-04-11T17:28:26.937Z,8.33
2019-04-11T17:33:33.864Z,7.87
2019-04-11T17:38:39.145Z,8.00
2019-04-11T17:43:46.704Z,9.00
2019-04-11T17:48:57.262Z,8.37
2019-04-11T17:54:04.132Z,8.83
2019-04-11T18:04:26.339Z,8.67
2019-04-11T18:09:32.189Z,8.03
2019-04-11T18:14:40.413Z,8.30
2019-04-11T18:19:45.701Z,8.10
2019-04-11T18:25:06.147Z,8.13
2019-04-11T18:30:13.277Z,8.03
2019-04-11T18:35:18.169Z,8.10
2019-04-11T18:40:23.617Z,8.63
2019-04-11T18:45:29.273Z,7.40
2019-04-11T18:50:34.953Z,7.80
2019-04-11T18:55:40.805Z,7.93
2019-04-11T19:00:46.065Z,7.40
2019-04-11T19:05:51.263Z,7.67
2019-04-11T19:10:55.707Z,7.13
2019-04-11T19:16:00.181Z,7.00
2019-04-11T19:21:04.827Z,6.93
2019-04-11T19:26:14.512Z,7.70
2019-04-11T19:31:27.696Z,7.50
2019-04-11T19:36:31.322Z,8.13
2019-04-11T19:41:48.661Z,7.43
2019-04-11T19:46:58.299Z,7.60
2019-04-11T19:52:03.371Z,7.50
2019-04-11T19:57:13.317Z,6.63
2019-04-11T20:02:23.368Z,6.77
2019-04-11T20:07:25.099Z,7.17
2019-04-11T20:12:30.731Z,6.90
2019-04-11T20:17:44.313Z,7.10
2019-04-11T20:22:42.927Z,8.00
2019-04-11T20:27:50.688Z,6.70
2019-04-11T20:32:55.917Z,7.27
2019-04-11T20:38:02.793Z,7.30
2019-04-11T20:43:10.110Z,7.27
2019-04-11T20:48:14.982Z,7.30
2019-04-11T20:53:19.360Z,7.93
2019-04-11T20:58:27.505Z,8.87
2019-04-11T21:03:31.795Z,8.17
2019-04-11T21:08:37.027Z,9.50
2019-04-11T21:13:42.266Z,9.60
2019-04-11T21:18:48.020Z,10.10
2019-04-11T21:23:52.980Z,10.80
2019-04-11T21:28:59.403Z,9.90
2019-04-11T21:34:04.893Z,11.03
2019-04-11T21:39:10.269Z,11.10
2019-04-11T21:44:15.874Z,10.20
2019-04-11T21:49:20.980Z,10.83
2019-04-11T21:54:25.978Z,10.57
2019-04-11T21:59:30.935Z,11.03
2019-04-11T22:04:37.013Z,10.37
2019-04-11T22:09:42.470Z,9.80
2019-04-11T22:14:48.008Z,9.73
2019-04-11T22:19:54.536Z,10.40
2019-04-11T22:24:59.856Z,10.00
2019-04-11T22:30:06.029Z,10.63
2019-04-11T22:35:11.264Z,10.57
2019-04-11T22:40:16.364Z,10.50
2019-04-11T22:45:21.174Z,11.10
2019-04-11T22:50:26.464Z,10.40
2019-04-11T22:55:31.264Z,10.30
2019-04-11T23:00:36.902Z,10.07
2019-04-11T23:05:46.588Z,10.03
2019-04-11T23:10:49.035Z,10.70
2019-04-11T23:15:53.046Z,10.77
2019-04-11T23:20:57.101Z,10.10
2019-04-11T23:26:01.258Z,10.50
2019-04-11T23:31:04.855Z,10.47
2019-04-11T23:36:08.578Z,10.80
2019-04-11T23:41:12.169Z,10.60
2019-04-11T23:46:15.938Z,11.23
2019-04-11T23:51:19.939Z,10.90
2019-04-11T23:56:23.357Z,11.37
